sensor_id;sensor_type;location;lat;lon;timestamp;temperature;humidity
29813;DHT22;16707;48.106;11.548;2023-08-21T00:00:56;18.00;99.90
29813;DHT22;16707;48.106;11.548;2023-08-21T00:03:23;18.10;99.90
29813;DHT22;16707;48.106;11.548;2023-08-21T00:05:50;18.10;99.90
29813;DHT22;16707;48.106;11.548;2023-08-21T00:08:17;18.10;99.90
29813;DHT22;16707;48.106;11.548;2023-08-21T00:10:46;18.00;99.90
29813;DHT22;16707;48.106;11.548;2023-08-21T00:13:13;18.00;99.90
29813;DHT22;16707;48.106;11.548;2023-08-21T00:15:40;17.90;99.90
29813;DHT22;16707;48.106;11.548;2023-08-21T00:18:07;17.90;99.90
29813;DHT22;16707;48.106;11.548;2023-08-21T00:20:34;18.00;99.90
29813;DHT22;16707;48.106;11.548;2023-08-21T00:23:01;18.00;99.90
29813;DHT22;16707;48.106;11.548;2023-08-21T00:25:28;17.90;99.90
29813;DHT22;16707;48.106;11.548;2023-08-21T00:27:56;17.90;99.90
29813;DHT22;16707;48.106;11.548;2023-08-21T00:30:23;17.90;99.90
29813;DHT22;16707;48.106;11.548;2023-08-21T00:32:50;17.90;99.90
29813;DHT22;16707;48.106;11.548;2023-08-21T00:35:17;17.90;99.90
29813;DHT22;16707;48.106;11.548;2023-08-21T00:37:44;17.80;99.90
29813;DHT22;16707;48.106;11.548;2023-08-21T00:40:12;17.70;99.90
29813;DHT22;16707;48.106;11.548;2023-08-21T00:42:39;17.70;99.90
29813;DHT22;16707;48.106;11.548;2023-08-21T00:45:09;17.70;99.90
29813;DHT22;16707;48.106;11.548;2023-08-21T00:47:37;17.60;99.90
29813;DHT22;16707;48.106;11.548;2023-08-21T00:50:06;17.50;99.90
29813;DHT22;16707;48.106;11.548;2023-08-21T00:52:35;17.60;99.90
29813;DHT22;16707;48.106;11.548;2023-08-21T00:55:03;17.60;99.90
29813;DHT22;16707;48.106;11.548;2023-08-21T00:57:31;17.60;99.90
29813;DHT22;16707;48.106;11.548;2023-08-21T01:00:00;17.60;99.90
29813;DHT22;16707;48.106;11.548;2023-08-21T01:02:28;17.60;99.90
29813;DHT22;16707;48.106;11.548;2023-08-21T01:04:56;17.60;99.90
29813;DHT22;16707;48.106;11.548;2023-08-21T01:07:23;17.60;99.90
29813;DHT22;16707;48.106;11.548;2023-08-21T01:09:54;17.50;99.90
29813;DHT22;16707;48.106;11.548;2023-08-21T01:12:35;17.50;99.90
29813;DHT22;16707;48.106;11.548;2023-08-21T01:15:05;17.50;99.90
29813;DHT22;16707;48.106;11.548;2023-08-21T01:17:37;17.50;99.90
29813;DHT22;16707;48.106;11.548;2023-08-21T01:20:07;17.40;99.90
29813;DHT22;16707;48.106;11.548;2023-08-21T01:22:36;17.40;99.90
29813;DHT22;16707;48.106;11.548;2023-08-21T01:25:07;17.30;99.90
29813;DHT22;16707;48.106;11.548;2023-08-21T01:27:35;17.40;99.90
29813;DHT22;16707;48.106;11.548;2023-08-21T01:30:03;17.40;99.90
29813;DHT22;16707;48.106;11.548;2023-08-21T01:32:37;17.30;99.90
29813;DHT22;16707;48.106;11.548;2023-08-21T01:35:07;17.30;99.90
29813;DHT22;16707;48.106;11.548;2023-08-21T01:37:36;17.20;99.90
29813;DHT22;16707;48.106;11.548;2023-08-21T01:40:06;17.20;99.90
29813;DHT22;16707;48.106;11.548;2023-08-21T01:42:33;17.20;99.90
29813;DHT22;16707;48.106;11.548;2023-08-21T01:45:02;17.10;99.90
29813;DHT22;16707;48.106;11.548;2023-08-21T01:47:29;17.20;99.90
29813;DHT22;16707;48.106;11.548;2023-08-21T01:49:56;17.20;99.90
29813;DHT22;16707;48.106;11.548;2023-08-21T01:52:23;17.20;99.90
29813;DHT22;16707;48.106;11.548;2023-08-21T01:54:51;17.20;99.90
29813;DHT22;16707;48.106;11.548;2023-08-21T01:57:19;17.20;99.90
29813;DHT22;16707;48.106;11.548;2023-08-21T01:59:46;17.30;99.90
29813;DHT22;16707;48.106;11.548;2023-08-21T02:02:14;17.20;99.90
29813;DHT22;16707;48.106;11.548;2023-08-21T02:04:41;17.20;99.90
29813;DHT22;16707;48.106;11.548;2023-08-21T02:07:08;17.20;99.90
29813;DHT22;16707;48.106;11.548;2023-08-21T02:09:35;17.10;99.90
29813;DHT22;16707;48.106;11.548;2023-08-21T02:12:02;17.10;99.90
29813;DHT22;16707;48.106;11.548;2023-08-21T02:14:31;17.00;99.90
29813;DHT22;16707;48.106;11.548;2023-08-21T02:16:58;17.00;99.90
29813;DHT22;16707;48.106;11.548;2023-08-21T02:19:25;17.00;99.90
29813;DHT22;16707;48.106;11.548;2023-08-21T02:21:52;16.90;99.90
29813;DHT22;16707;48.106;11.548;2023-08-21T02:24:19;16.90;99.90
29813;DHT22;16707;48.106;11.548;2023-08-21T02:26:46;16.90;99.90
29813;DHT22;16707;48.106;11.548;2023-08-21T02:29:13;16.90;99.90
29813;DHT22;16707;48.106;11.548;2023-08-21T02:31:41;16.90;99.90
29813;DHT22;16707;48.106;11.548;2023-08-21T02:34:08;16.80;99.90
29813;DHT22;16707;48.106;11.548;2023-08-21T02:36:35;16.80;99.90
29813;DHT22;16707;48.106;11.548;2023-08-21T02:39:02;16.70;99.90
29813;DHT22;16707;48.106;11.548;2023-08-21T02:41:29;16.70;99.90
29813;DHT22;16707;48.106;11.548;2023-08-21T02:43:56;16.70;99.90
29813;DHT22;16707;48.106;11.548;2023-08-21T02:46:23;16.70;99.90
29813;DHT22;16707;48.106;11.548;2023-08-21T02:48:52;16.70;99.90
29813;DHT22;16707;48.106;11.548;2023-08-21T02:51:19;16.70;99.90
29813;DHT22;16707;48.106;11.548;2023-08-21T02:53:46;16.70;99.90
29813;DHT22;16707;48.106;11.548;2023-08-21T02:56:13;16.70;99.90
29813;DHT22;16707;48.106;11.548;2023-08-21T02:58:40;16.60;99.90
29813;DHT22;16707;48.106;11.548;2023-08-21T03:01:07;16.60;99.90
29813;DHT22;16707;48.106;11.548;2023-08-21T03:03:33;16.60;99.90
29813;DHT22;16707;48.106;11.548;2023-08-21T03:06:02;16.50;99.90
29813;DHT22;16707;48.106;11.548;2023-08-21T03:08:29;16.50;99.90
29813;DHT22;16707;48.106;11.548;2023-08-21T03:10:56;16.50;99.90
29813;DHT22;16707;48.106;11.548;2023-08-21T03:13:26;16.40;99.90
29813;DHT22;16707;48.106;11.548;2023-08-21T03:15:53;16.40;99.90
29813;DHT22;16707;48.106;11.548;2023-08-21T03:18:20;16.40;99.90
29813;DHT22;16707;48.106;11.548;2023-08-21T03:20:47;16.40;99.90
29813;DHT22;16707;48.106;11.548;2023-08-21T03:23:15;16.40;99.90
29813;DHT22;16707;48.106;11.548;2023-08-21T03:25:42;16.40;99.90
29813;DHT22;16707;48.106;11.548;2023-08-21T03:28:09;16.40;99.90
29813;DHT22;16707;48.106;11.548;2023-08-21T03:30:38;16.40;99.90
29813;DHT22;16707;48.106;11.548;2023-08-21T03:33:05;16.30;99.90
29813;DHT22;16707;48.106;11.548;2023-08-21T03:35:33;16.30;99.90
29813;DHT22;16707;48.106;11.548;2023-08-21T03:38:00;16.40;99.90
29813;DHT22;16707;48.106;11.548;2023-08-21T03:40:28;16.30;99.90
29813;DHT22;16707;48.106;11.548;2023-08-21T03:42:55;16.40;99.90
29813;DHT22;16707;48.106;11.548;2023-08-21T03:45:25;16.40;99.90
29813;DHT22;16707;48.106;11.548;2023-08-21T03:47:51;16.40;99.90
29813;DHT22;16707;48.106;11.548;2023-08-21T03:50:18;16.40;99.90
29813;DHT22;16707;48.106;11.548;2023-08-21T03:52:45;16.40;99.90
29813;DHT22;16707;48.106;11.548;2023-08-21T03:55:12;16.30;99.90
29813;DHT22;16707;48.106;11.548;2023-08-21T03:57:41;16.30;99.90
29813;DHT22;16707;48.106;11.548;2023-08-21T04:00:08;16.30;99.90
29813;DHT22;16707;48.106;11.548;2023-08-21T04:02:36;16.30;99.90
29813;DHT22;16707;48.106;11.548;2023-08-21T04:05:06;16.30;99.90
29813;DHT22;16707;48.106;11.548;2023-08-21T04:07:33;16.30;99.90
29813;DHT22;16707;48.106;11.548;2023-08-21T04:10:00;16.30;99.90
29813;DHT22;16707;48.106;11.548;2023-08-21T04:12:27;16.40;99.90
29813;DHT22;16707;48.106;11.548;2023-08-21T04:14:56;16.40;99.90
29813;DHT22;16707;48.106;11.548;2023-08-21T04:17:23;16.40;99.90
29813;DHT22;16707;48.106;11.548;2023-08-21T04:19:50;16.40;99.90
29813;DHT22;16707;48.106;11.548;2023-08-21T04:22:17;16.40;99.90
29813;DHT22;16707;48.106;11.548;2023-08-21T04:24:44;16.50;99.90
29813;DHT22;16707;48.106;11.548;2023-08-21T04:27:11;16.50;99.90
29813;DHT22;16707;48.106;11.548;2023-08-21T04:29:38;16.50;99.90
29813;DHT22;16707;48.106;11.548;2023-08-21T04:32:07;16.60;99.90
29813;DHT22;16707;48.106;11.548;2023-08-21T04:34:34;16.70;99.90
29813;DHT22;16707;48.106;11.548;2023-08-21T04:37:01;16.70;99.90
29813;DHT22;16707;48.106;11.548;2023-08-21T04:39:31;16.80;99.90
29813;DHT22;16707;48.106;11.548;2023-08-21T04:41:58;16.90;99.90
29813;DHT22;16707;48.106;11.548;2023-08-21T04:44:25;17.00;99.90
29813;DHT22;16707;48.106;11.548;2023-08-21T04:46:52;17.00;99.90
29813;DHT22;16707;48.106;11.548;2023-08-21T04:49:21;17.10;99.90
29813;DHT22;16707;48.106;11.548;2023-08-21T04:51:48;17.20;99.90
29813;DHT22;16707;48.106;11.548;2023-08-21T04:54:15;17.30;99.90
29813;DHT22;16707;48.106;11.548;2023-08-21T04:56:42;17.40;99.90
29813;DHT22;16707;48.106;11.548;2023-08-21T04:59:09;17.50;99.90
29813;DHT22;16707;48.106;11.548;2023-08-21T05:01:36;18.70;99.90
29813;DHT22;16707;48.106;11.548;2023-08-21T05:04:03;20.50;99.90
29813;DHT22;16707;48.106;11.548;2023-08-21T05:06:32;22.70;99.90
29813;DHT22;16707;48.106;11.548;2023-08-21T05:08:59;24.90;99.90
29813;DHT22;16707;48.106;11.548;2023-08-21T05:11:26;26.40;99.90
29813;DHT22;16707;48.106;11.548;2023-08-21T05:13:53;26.90;99.70
29813;DHT22;16707;48.106;11.548;2023-08-21T05:16:20;28.40;94.00
29813;DHT22;16707;48.106;11.548;2023-08-21T05:18:47;29.70;91.60
29813;DHT22;16707;48.106;11.548;2023-08-21T05:21:14;31.20;83.90
29813;DHT22;16707;48.106;11.548;2023-08-21T05:23:42;32.90;72.70
29813;DHT22;16707;48.106;11.548;2023-08-21T05:26:09;33.60;67.30
29813;DHT22;16707;48.106;11.548;2023-08-21T05:28:36;33.10;64.50
29813;DHT22;16707;48.106;11.548;2023-08-21T05:31:05;33.10;64.10
29813;DHT22;16707;48.106;11.548;2023-08-21T05:33:32;33.30;61.70
29813;DHT22;16707;48.106;11.548;2023-08-21T05:35:59;34.10;59.20
29813;DHT22;16707;48.106;11.548;2023-08-21T05:38:29;34.90;58.00
29813;DHT22;16707;48.106;11.548;2023-08-21T05:40:57;36.00;55.10
29813;DHT22;16707;48.106;11.548;2023-08-21T05:43:25;36.20;54.10
29813;DHT22;16707;48.106;11.548;2023-08-21T05:45:52;35.90;52.60
29813;DHT22;16707;48.106;11.548;2023-08-21T05:48:19;36.50;51.90
29813;DHT22;16707;48.106;11.548;2023-08-21T05:50:50;36.90;51.00
29813;DHT22;16707;48.106;11.548;2023-08-21T05:53:17;38.70;49.50
29813;DHT22;16707;48.106;11.548;2023-08-21T05:55:44;39.90;46.70
29813;DHT22;16707;48.106;11.548;2023-08-21T05:58:13;39.50;45.10
29813;DHT22;16707;48.106;11.548;2023-08-21T06:00:40;40.50;45.30
29813;DHT22;16707;48.106;11.548;2023-08-21T06:03:07;40.70;43.40
29813;DHT22;16707;48.106;11.548;2023-08-21T06:05:34;41.20;42.00
29813;DHT22;16707;48.106;11.548;2023-08-21T06:08:02;41.10;41.70
29813;DHT22;16707;48.106;11.548;2023-08-21T06:10:31;42.50;40.80
29813;DHT22;16707;48.106;11.548;2023-08-21T06:12:58;42.30;38.90
29813;DHT22;16707;48.106;11.548;2023-08-21T06:15:26;42.40;40.40
29813;DHT22;16707;48.106;11.548;2023-08-21T06:17:53;41.50;40.30
29813;DHT22;16707;48.106;11.548;2023-08-21T06:20:21;43.70;39.30
29813;DHT22;16707;48.106;11.548;2023-08-21T06:22:48;42.20;38.40
29813;DHT22;16707;48.106;11.548;2023-08-21T06:25:15;42.10;39.40
29813;DHT22;16707;48.106;11.548;2023-08-21T06:27:42;42.90;37.70
29813;DHT22;16707;48.106;11.548;2023-08-21T06:30:09;44.20;37.30
29813;DHT22;16707;48.106;11.548;2023-08-21T06:32:38;43.30;36.70
29813;DHT22;16707;48.106;11.548;2023-08-21T06:35:06;43.80;36.70
29813;DHT22;16707;48.106;11.548;2023-08-21T06:37:33;43.40;35.90
29813;DHT22;16707;48.106;11.548;2023-08-21T06:40:00;44.20;36.30
29813;DHT22;16707;48.106;11.548;2023-08-21T06:42:27;43.40;36.10
29813;DHT22;16707;48.106;11.548;2023-08-21T06:44:54;43.60;36.80
29813;DHT22;16707;48.106;11.548;2023-08-21T06:47:21;43.40;35.40
29813;DHT22;16707;48.106;11.548;2023-08-21T06:49:49;42.60;37.00
29813;DHT22;16707;48.106;11.548;2023-08-21T06:52:17;39.10;38.90
29813;DHT22;16707;48.106;11.548;2023-08-21T06:54:44;36.80;41.30
29813;DHT22;16707;48.106;11.548;2023-08-21T06:57:11;34.40;46.70
29813;DHT22;16707;48.106;11.548;2023-08-21T06:59:38;32.30;52.40
29813;DHT22;16707;48.106;11.548;2023-08-21T07:02:06;31.50;57.50
29813;DHT22;16707;48.106;11.548;2023-08-21T07:04:33;30.50;61.10
29813;DHT22;16707;48.106;11.548;2023-08-21T07:07:01;29.50;68.90
29813;DHT22;16707;48.106;11.548;2023-08-21T07:09:28;28.60;72.60
29813;DHT22;16707;48.106;11.548;2023-08-21T07:11:55;28.20;76.60
29813;DHT22;16707;48.106;11.548;2023-08-21T07:14:22;28.10;78.10
29813;DHT22;16707;48.106;11.548;2023-08-21T07:16:49;27.80;80.40
29813;DHT22;16707;48.106;11.548;2023-08-21T07:19:19;27.90;78.90
29813;DHT22;16707;48.106;11.548;2023-08-21T07:21:46;27.80;78.40
29813;DHT22;16707;48.106;11.548;2023-08-21T07:24:15;27.40;83.60
29813;DHT22;16707;48.106;11.548;2023-08-21T07:26:42;27.10;81.70
29813;DHT22;16707;48.106;11.548;2023-08-21T07:29:09;26.90;82.40
29813;DHT22;16707;48.106;11.548;2023-08-21T07:31:36;26.70;84.70
29813;DHT22;16707;48.106;11.548;2023-08-21T07:34:03;26.60;84.80
29813;DHT22;16707;48.106;11.548;2023-08-21T07:36:31;26.60;86.20
29813;DHT22;16707;48.106;11.548;2023-08-21T07:38:58;26.60;87.30
29813;DHT22;16707;48.106;11.548;2023-08-21T07:41:30;26.60;85.60
29813;DHT22;16707;48.106;11.548;2023-08-21T07:43:57;26.60;86.90
29813;DHT22;16707;48.106;11.548;2023-08-21T07:46:24;26.60;87.30
29813;DHT22;16707;48.106;11.548;2023-08-21T07:48:52;26.60;86.60
29813;DHT22;16707;48.106;11.548;2023-08-21T07:51:19;26.60;86.70
29813;DHT22;16707;48.106;11.548;2023-08-21T07:53:46;26.70;86.20
29813;DHT22;16707;48.106;11.548;2023-08-21T07:56:13;26.80;85.20
29813;DHT22;16707;48.106;11.548;2023-08-21T07:58:41;26.80;85.90
29813;DHT22;16707;48.106;11.548;2023-08-21T08:01:08;26.80;86.70
29813;DHT22;16707;48.106;11.548;2023-08-21T08:03:35;26.80;86.20
29813;DHT22;16707;48.106;11.548;2023-08-21T08:06:03;26.90;85.30
29813;DHT22;16707;48.106;11.548;2023-08-21T08:08:30;27.00;84.50
29813;DHT22;16707;48.106;11.548;2023-08-21T08:11:01;27.10;84.70
29813;DHT22;16707;48.106;11.548;2023-08-21T08:13:29;27.10;84.60
29813;DHT22;16707;48.106;11.548;2023-08-21T08:15:57;27.10;85.60
29813;DHT22;16707;48.106;11.548;2023-08-21T08:18:24;27.10;84.10
29813;DHT22;16707;48.106;11.548;2023-08-21T08:20:51;27.20;83.90
29813;DHT22;16707;48.106;11.548;2023-08-21T08:23:19;27.20;84.70
29813;DHT22;16707;48.106;11.548;2023-08-21T08:25:48;27.40;85.00
29813;DHT22;16707;48.106;11.548;2023-08-21T08:28:19;27.40;83.70
29813;DHT22;16707;48.106;11.548;2023-08-21T08:30:47;27.50;84.00
29813;DHT22;16707;48.106;11.548;2023-08-21T08:33:15;27.60;81.50
29813;DHT22;16707;48.106;11.548;2023-08-21T08:35:42;27.60;79.30
29813;DHT22;16707;48.106;11.548;2023-08-21T08:38:09;27.70;78.70
29813;DHT22;16707;48.106;11.548;2023-08-21T08:40:43;27.70;78.70
29813;DHT22;16707;48.106;11.548;2023-08-21T08:43:12;27.80;79.40
29813;DHT22;16707;48.106;11.548;2023-08-21T08:45:43;28.00;79.00
29813;DHT22;16707;48.106;11.548;2023-08-21T08:48:12;28.20;78.80
29813;DHT22;16707;48.106;11.548;2023-08-21T08:50:41;28.30;79.50
29813;DHT22;16707;48.106;11.548;2023-08-21T08:53:09;28.20;76.10
29813;DHT22;16707;48.106;11.548;2023-08-21T08:55:37;28.40;76.00
29813;DHT22;16707;48.106;11.548;2023-08-21T08:58:03;28.50;74.40
29813;DHT22;16707;48.106;11.548;2023-08-21T09:00:31;28.60;74.50
29813;DHT22;16707;48.106;11.548;2023-08-21T09:02:58;28.70;75.40
29813;DHT22;16707;48.106;11.548;2023-08-21T09:05:25;28.80;69.20
29813;DHT22;16707;48.106;11.548;2023-08-21T09:08:12;28.90;68.40
29813;DHT22;16707;48.106;11.548;2023-08-21T09:10:40;29.00;65.30
29813;DHT22;16707;48.106;11.548;2023-08-21T09:13:15;29.00;67.80
29813;DHT22;16707;48.106;11.548;2023-08-21T09:15:43;29.00;62.90
29813;DHT22;16707;48.106;11.548;2023-08-21T09:18:13;29.00;63.10
29813;DHT22;16707;48.106;11.548;2023-08-21T09:20:43;29.20;63.00
29813;DHT22;16707;48.106;11.548;2023-08-21T09:23:15;29.40;62.30
29813;DHT22;16707;48.106;11.548;2023-08-21T09:25:45;29.60;61.50
29813;DHT22;16707;48.106;11.548;2023-08-21T09:28:13;29.70;59.80
29813;DHT22;16707;48.106;11.548;2023-08-21T09:30:44;29.70;58.10
29813;DHT22;16707;48.106;11.548;2023-08-21T09:33:12;29.70;58.00
29813;DHT22;16707;48.106;11.548;2023-08-21T09:35:39;29.70;60.00
29813;DHT22;16707;48.106;11.548;2023-08-21T09:38:08;29.80;59.90
29813;DHT22;16707;48.106;11.548;2023-08-21T09:40:39;29.90;55.50
29813;DHT22;16707;48.106;11.548;2023-08-21T09:43:08;29.90;56.50
29813;DHT22;16707;48.106;11.548;2023-08-21T09:45:35;29.90;56.10
29813;DHT22;16707;48.106;11.548;2023-08-21T09:48:03;30.00;55.80
29813;DHT22;16707;48.106;11.548;2023-08-21T09:50:31;30.10;56.60
29813;DHT22;16707;48.106;11.548;2023-08-21T09:52:58;30.10;58.00
29813;DHT22;16707;48.106;11.548;2023-08-21T09:55:26;30.30;54.10
29813;DHT22;16707;48.106;11.548;2023-08-21T09:57:59;30.30;53.10
29813;DHT22;16707;48.106;11.548;2023-08-21T10:00:29;30.30;53.90
29813;DHT22;16707;48.106;11.548;2023-08-21T10:03:01;30.30;55.40
29813;DHT22;16707;48.106;11.548;2023-08-21T10:05:30;30.30;55.50
29813;DHT22;16707;48.106;11.548;2023-08-21T10:08:00;30.50;56.90
29813;DHT22;16707;48.106;11.548;2023-08-21T10:10:30;30.70;55.80
29813;DHT22;16707;48.106;11.548;2023-08-21T10:12:59;30.80;56.70
29813;DHT22;16707;48.106;11.548;2023-08-21T10:15:28;30.80;57.10
29813;DHT22;16707;48.106;11.548;2023-08-21T10:17:56;30.80;54.80
29813;DHT22;16707;48.106;11.548;2023-08-21T10:20:24;30.80;55.10
29813;DHT22;16707;48.106;11.548;2023-08-21T10:22:54;30.80;56.60
29813;DHT22;16707;48.106;11.548;2023-08-21T10:25:23;30.90;55.40
29813;DHT22;16707;48.106;11.548;2023-08-21T10:27:52;30.90;55.70
29813;DHT22;16707;48.106;11.548;2023-08-21T10:30:23;31.00;55.80
29813;DHT22;16707;48.106;11.548;2023-08-21T10:32:52;31.00;55.40
29813;DHT22;16707;48.106;11.548;2023-08-21T10:35:22;30.90;56.80
29813;DHT22;16707;48.106;11.548;2023-08-21T10:38:06;31.10;57.50
29813;DHT22;16707;48.106;11.548;2023-08-21T10:40:34;31.10;56.70
29813;DHT22;16707;48.106;11.548;2023-08-21T10:43:01;31.10;57.90
29813;DHT22;16707;48.106;11.548;2023-08-21T10:45:30;31.30;56.70
29813;DHT22;16707;48.106;11.548;2023-08-21T10:47:57;31.30;55.50
29813;DHT22;16707;48.106;11.548;2023-08-21T10:50:25;31.30;55.10
29813;DHT22;16707;48.106;11.548;2023-08-21T10:52:53;31.40;55.20
29813;DHT22;16707;48.106;11.548;2023-08-21T10:55:20;31.40;55.90
29813;DHT22;16707;48.106;11.548;2023-08-21T10:57:48;31.70;55.90
29813;DHT22;16707;48.106;11.548;2023-08-21T11:00:17;31.50;55.30
29813;DHT22;16707;48.106;11.548;2023-08-21T11:02:48;31.40;54.70
29813;DHT22;16707;48.106;11.548;2023-08-21T11:05:16;31.30;56.10
29813;DHT22;16707;48.106;11.548;2023-08-21T11:07:44;31.40;55.00
29813;DHT22;16707;48.106;11.548;2023-08-21T11:10:12;31.40;54.90
29813;DHT22;16707;48.106;11.548;2023-08-21T11:12:51;31.50;54.90
29813;DHT22;16707;48.106;11.548;2023-08-21T11:15:18;31.60;56.00
29813;DHT22;16707;48.106;11.548;2023-08-21T11:17:55;31.50;56.40
29813;DHT22;16707;48.106;11.548;2023-08-21T11:20:28;31.60;55.80
29813;DHT22;16707;48.106;11.548;2023-08-21T11:22:59;31.50;55.90
29813;DHT22;16707;48.106;11.548;2023-08-21T11:25:28;31.60;55.40
29813;DHT22;16707;48.106;11.548;2023-08-21T11:27:55;31.70;54.70
29813;DHT22;16707;48.106;11.548;2023-08-21T11:30:23;31.80;55.50
29813;DHT22;16707;48.106;11.548;2023-08-21T11:33:05;31.80;55.60
29813;DHT22;16707;48.106;11.548;2023-08-21T11:35:33;31.80;54.50
29813;DHT22;16707;48.106;11.548;2023-08-21T11:38:00;32.00;54.10
29813;DHT22;16707;48.106;11.548;2023-08-21T11:40:27;32.00;54.60
29813;DHT22;16707;48.106;11.548;2023-08-21T11:42:59;32.00;53.80
29813;DHT22;16707;48.106;11.548;2023-08-21T11:45:27;32.10;53.50
29813;DHT22;16707;48.106;11.548;2023-08-21T11:47:55;32.10;53.50
29813;DHT22;16707;48.106;11.548;2023-08-21T11:50:25;32.10;54.00
29813;DHT22;16707;48.106;11.548;2023-08-21T11:52:53;32.20;54.30
29813;DHT22;16707;48.106;11.548;2023-08-21T11:55:22;32.30;52.40
29813;DHT22;16707;48.106;11.548;2023-08-21T11:57:50;32.40;53.20
29813;DHT22;16707;48.106;11.548;2023-08-21T12:00:18;32.30;52.60
29813;DHT22;16707;48.106;11.548;2023-08-21T12:02:55;32.40;52.70
29813;DHT22;16707;48.106;11.548;2023-08-21T12:05:25;32.50;54.00
29813;DHT22;16707;48.106;11.548;2023-08-21T12:07:52;32.50;54.90
29813;DHT22;16707;48.106;11.548;2023-08-21T12:10:24;32.10;55.20
29813;DHT22;16707;48.106;11.548;2023-08-21T12:12:51;32.00;55.50
29813;DHT22;16707;48.106;11.548;2023-08-21T12:15:19;32.20;56.20
29813;DHT22;16707;48.106;11.548;2023-08-21T12:17:46;32.30;54.60
29813;DHT22;16707;48.106;11.548;2023-08-21T12:20:13;32.30;54.40
29813;DHT22;16707;48.106;11.548;2023-08-21T12:22:41;32.20;54.70
29813;DHT22;16707;48.106;11.548;2023-08-21T12:25:09;32.10;54.90
29813;DHT22;16707;48.106;11.548;2023-08-21T12:27:36;32.10;54.50
29813;DHT22;16707;48.106;11.548;2023-08-21T12:30:04;32.20;54.80
29813;DHT22;16707;48.106;11.548;2023-08-21T12:32:32;32.20;54.90
29813;DHT22;16707;48.106;11.548;2023-08-21T12:34:58;32.20;54.00
29813;DHT22;16707;48.106;11.548;2023-08-21T12:37:25;32.30;54.90
29813;DHT22;16707;48.106;11.548;2023-08-21T12:39:55;32.30;53.90
29813;DHT22;16707;48.106;11.548;2023-08-21T12:42:22;32.30;53.40
29813;DHT22;16707;48.106;11.548;2023-08-21T12:44:48;32.40;53.30
29813;DHT22;16707;48.106;11.548;2023-08-21T12:47:15;32.50;53.30
29813;DHT22;16707;48.106;11.548;2023-08-21T12:49:42;32.60;51.60
29813;DHT22;16707;48.106;11.548;2023-08-21T12:52:09;32.60;53.10
29813;DHT22;16707;48.106;11.548;2023-08-21T12:54:38;32.70;52.90
29813;DHT22;16707;48.106;11.548;2023-08-21T12:57:08;32.80;52.50
29813;DHT22;16707;48.106;11.548;2023-08-21T12:59:36;32.80;51.80
29813;DHT22;16707;48.106;11.548;2023-08-21T13:02:04;32.80;51.80
29813;DHT22;16707;48.106;11.548;2023-08-21T13:04:31;32.70;51.60
29813;DHT22;16707;48.106;11.548;2023-08-21T13:06:58;32.70;53.30
29813;DHT22;16707;48.106;11.548;2023-08-21T13:09:26;32.70;52.50
29813;DHT22;16707;48.106;11.548;2023-08-21T13:11:54;32.80;51.00
29813;DHT22;16707;48.106;11.548;2023-08-21T13:14:22;32.80;51.20
29813;DHT22;16707;48.106;11.548;2023-08-21T13:16:49;33.00;50.30
29813;DHT22;16707;48.106;11.548;2023-08-21T13:19:16;33.10;50.30
29813;DHT22;16707;48.106;11.548;2023-08-21T13:21:43;33.30;50.10
29813;DHT22;16707;48.106;11.548;2023-08-21T13:24:10;33.30;50.20
29813;DHT22;16707;48.106;11.548;2023-08-21T13:26:37;33.20;50.30
29813;DHT22;16707;48.106;11.548;2023-08-21T13:29:04;33.20;51.10
29813;DHT22;16707;48.106;11.548;2023-08-21T13:31:34;33.10;51.00
29813;DHT22;16707;48.106;11.548;2023-08-21T13:34:01;33.10;49.60
29813;DHT22;16707;48.106;11.548;2023-08-21T13:36:29;33.00;50.90
29813;DHT22;16707;48.106;11.548;2023-08-21T13:38:56;33.00;51.00
29813;DHT22;16707;48.106;11.548;2023-08-21T13:41:23;33.10;49.70
29813;DHT22;16707;48.106;11.548;2023-08-21T13:43:50;33.20;50.50
29813;DHT22;16707;48.106;11.548;2023-08-21T13:46:17;33.20;50.70
29813;DHT22;16707;48.106;11.548;2023-08-21T13:48:47;33.10;50.30
29813;DHT22;16707;48.106;11.548;2023-08-21T13:51:14;33.10;51.40
29813;DHT22;16707;48.106;11.548;2023-08-21T13:53:41;33.10;51.90
29813;DHT22;16707;48.106;11.548;2023-08-21T13:56:08;32.90;51.10
29813;DHT22;16707;48.106;11.548;2023-08-21T13:58:35;32.90;51.30
29813;DHT22;16707;48.106;11.548;2023-08-21T14:01:02;32.80;51.10
29813;DHT22;16707;48.106;11.548;2023-08-21T14:03:29;32.80;50.40
29813;DHT22;16707;48.106;11.548;2023-08-21T14:05:58;32.90;50.20
29813;DHT22;16707;48.106;11.548;2023-08-21T14:08:25;32.90;49.90
29813;DHT22;16707;48.106;11.548;2023-08-21T14:10:52;33.00;50.00
29813;DHT22;16707;48.106;11.548;2023-08-21T14:13:19;33.10;50.40
29813;DHT22;16707;48.106;11.548;2023-08-21T14:15:47;33.20;49.50
29813;DHT22;16707;48.106;11.548;2023-08-21T14:18:14;33.20;50.80
29813;DHT22;16707;48.106;11.548;2023-08-21T14:20:41;33.30;48.90
29813;DHT22;16707;48.106;11.548;2023-08-21T14:23:09;33.20;48.60
29813;DHT22;16707;48.106;11.548;2023-08-21T14:25:37;33.30;49.00
29813;DHT22;16707;48.106;11.548;2023-08-21T14:28:04;33.30;48.70
29813;DHT22;16707;48.106;11.548;2023-08-21T14:30:31;33.10;49.70
29813;DHT22;16707;48.106;11.548;2023-08-21T14:32:59;33.20;49.80
29813;DHT22;16707;48.106;11.548;2023-08-21T14:35:26;33.10;49.40
29813;DHT22;16707;48.106;11.548;2023-08-21T14:37:53;33.10;49.20
29813;DHT22;16707;48.106;11.548;2023-08-21T14:40:21;33.10;49.40
29813;DHT22;16707;48.106;11.548;2023-08-21T14:42:48;33.10;50.20
29813;DHT22;16707;48.106;11.548;2023-08-21T14:45:15;33.00;50.70
29813;DHT22;16707;48.106;11.548;2023-08-21T14:47:42;32.80;50.00
29813;DHT22;16707;48.106;11.548;2023-08-21T14:50:09;32.80;50.80
29813;DHT22;16707;48.106;11.548;2023-08-21T14:52:37;32.80;49.60
29813;DHT22;16707;48.106;11.548;2023-08-21T14:55:04;32.80;49.60
29813;DHT22;16707;48.106;11.548;2023-08-21T14:57:33;32.80;50.20
29813;DHT22;16707;48.106;11.548;2023-08-21T15:00:00;32.80;49.50
29813;DHT22;16707;48.106;11.548;2023-08-21T15:02:29;32.80;50.40
29813;DHT22;16707;48.106;11.548;2023-08-21T15:04:56;32.70;50.00
29813;DHT22;16707;48.106;11.548;2023-08-21T15:07:23;32.70;50.70
29813;DHT22;16707;48.106;11.548;2023-08-21T15:09:50;32.80;51.60
29813;DHT22;16707;48.106;11.548;2023-08-21T15:12:17;32.80;51.50
29813;DHT22;16707;48.106;11.548;2023-08-21T15:14:45;32.70;51.40
29813;DHT22;16707;48.106;11.548;2023-08-21T15:17:12;32.60;51.40
29813;DHT22;16707;48.106;11.548;2023-08-21T15:19:40;32.60;51.30